createdAt,value
2019-02-26T00:01:21.040Z,62.00
2019-02-26T00:03:50.803Z,63.90
2019-02-26T00:06:22.906Z,63.50
2019-02-26T00:08:59.532Z,63.80
2019-02-26T00:11:40.146Z,64.00
2019-02-26T00:14:13.208Z,64.00
2019-02-26T00:16:51.383Z,64.70
2019-02-26T00:19:43.052Z,66.60
2019-02-26T00:22:32.324Z,67.40
2019-02-26T00:25:03.831Z,68.50
2019-02-26T00:27:37.988Z,69.30
2019-02-26T00:30:11.289Z,70.80
2019-02-26T00:32:45.425Z,73.10
2019-02-26T00:35:23.567Z,73.90
2019-02-26T00:38:23.091Z,74.40
2019-02-26T00:41:03.856Z,74.10
2019-02-26T00:46:14.102Z,74.00
2019-02-26T00:48:45.686Z,74.20
2019-02-26T00:51:20.933Z,75.10
2019-02-26T00:53:55.044Z,76.20
2019-02-26T00:56:25.238Z,78.10
2019-02-26T00:59:06.008Z,77.80
2019-02-26T01:01:48.247Z,78.00
2019-02-26T01:07:08.948Z,80.90
2019-02-26T01:12:47.408Z,81.00
2019-02-26T01:15:42.277Z,82.20
2019-02-26T01:18:13.393Z,83.30
2019-02-26T01:20:50.324Z,83.40
2019-02-26T01:23:23.780Z,82.30
2019-02-26T01:25:54.366Z,81.60
2019-02-26T01:28:26.981Z,81.60
2019-02-26T01:31:09.040Z,82.10
2019-02-26T01:33:52.896Z,82.80
2019-02-26T01:36:28.701Z,83.90
2019-02-26T01:39:00.749Z,84.00
2019-02-26T01:41:58.803Z,84.70
2019-02-26T01:44:39.839Z,85.20
2019-02-26T01:47:10.133Z,86.00
2019-02-26T01:49:46.544Z,86.30
2019-02-26T01:52:31.669Z,86.40
2019-02-26T01:55:03.730Z,86.50
2019-02-26T01:57:52.253Z,87.20
2019-02-26T02:00:25.958Z,87.80
2019-02-26T02:03:14.740Z,86.40
2019-02-26T02:05:53.001Z,84.10
2019-02-26T02:08:23.010Z,82.20
2019-02-26T02:10:59.840Z,82.70
2019-02-26T02:16:35.427Z,84.00
2019-02-26T02:19:09.148Z,83.50
2019-02-26T02:21:49.298Z,83.80
2019-02-26T02:24:28.614Z,84.80
2019-02-26T02:27:09.983Z,86.50
2019-02-26T02:29:50.313Z,87.10
2019-02-26T02:32:23.448Z,87.30
2019-02-26T02:35:00.618Z,88.20
2019-02-26T02:37:30.059Z,88.20
2019-02-26T02:40:01.487Z,88.30
2019-02-26T02:42:35.140Z,88.20
2019-02-26T02:45:23.894Z,88.20
2019-02-26T02:51:13.711Z,88.90
2019-02-26T02:53:51.095Z,88.90
2019-02-26T02:56:22.051Z,90.20
2019-02-26T02:58:56.738Z,89.80
2019-02-26T03:01:46.411Z,90.30
2019-02-26T03:04:19.652Z,90.90
2019-02-26T03:06:52.823Z,90.60
2019-02-26T03:09:43.068Z,90.90
2019-02-26T03:12:15.011Z,91.30
2019-02-26T03:14:45.751Z,91.00
2019-02-26T03:17:18.174Z,91.00
2019-02-26T03:19:58.643Z,91.20
2019-02-26T03:22:29.880Z,91.00
2019-02-26T03:25:05.904Z,91.30
2019-02-26T03:27:40.112Z,91.50
2019-02-26T03:30:10.209Z,91.90
2019-02-26T03:32:41.220Z,92.30
2019-02-26T03:35:10.256Z,92.50
2019-02-26T03:37:40.042Z,92.50
2019-02-26T03:40:11.703Z,92.70
2019-02-26T03:42:41.621Z,92.80
2019-02-26T03:45:13.666Z,92.50
2019-02-26T03:47:42.401Z,92.40
2019-02-26T03:50:15.370Z,92.20
2019-02-26T03:52:45.653Z,92.10
2019-02-26T03:55:18.888Z,91.40
2019-02-26T03:57:47.376Z,91.10
2019-02-26T04:00:19.907Z,90.60
2019-02-26T04:02:51.483Z,90.40
2019-02-26T04:05:19.790Z,90.10
2019-02-26T04:07:55.002Z,90.30
2019-02-26T04:10:20.447Z,90.10
2019-02-26T04:12:52.357Z,90.50
2019-02-26T04:15:24.313Z,90.60
2019-02-26T04:17:51.112Z,90.30
2019-02-26T04:20:20.576Z,90.10
2019-02-26T04:22:52.352Z,90.30
2019-02-26T04:25:27.010Z,90.50
2019-02-26T04:27:56.376Z,90.80
2019-02-26T04:30:26.212Z,90.90
2019-02-26T04:32:57.793Z,90.80
2019-02-26T04:35:27.782Z,91.00
2019-02-26T04:38:01.600Z,91.10
2019-02-26T04:40:36.345Z,91.20
2019-02-26T04:43:08.266Z,91.40
2019-02-26T04:45:40.348Z,91.30
2019-02-26T04:48:14.748Z,91.10
2019-02-26T04:50:44.527Z,91.30
2019-02-26T04:53:15.090Z,91.10
2019-02-26T04:55:44.869Z,91.20
2019-02-26T04:58:15.570Z,91.50
2019-02-26T05:00:44.428Z,91.50
2019-02-26T05:03:14.900Z,91.90
2019-02-26T05:05:44.425Z,92.10
2019-02-26T05:08:14.924Z,92.30
2019-02-26T05:10:43.764Z,92.40
2019-02-26T05:13:12.561Z,92.40
2019-02-26T05:15:43.348Z,92.30
2019-02-26T05:18:11.961Z,92.10
2019-02-26T05:20:43.108Z,91.70
2019-02-26T05:23:11.501Z,91.70
2019-02-26T05:25:42.991Z,91.90
2019-02-26T05:28:14.041Z,92.20
2019-02-26T05:30:43.864Z,92.10
2019-02-26T05:33:11.936Z,91.90
2019-02-26T05:35:43.341Z,91.80
2019-02-26T05:38:11.234Z,91.80
2019-02-26T05:40:42.471Z,91.90
2019-02-26T05:43:10.508Z,92.00
2019-02-26T05:45:39.357Z,92.20
2019-02-26T05:48:08.210Z,92.60
2019-02-26T05:50:38.451Z,93.20
2019-02-26T05:53:10.455Z,93.40
2019-02-26T05:55:38.231Z,93.30
2019-02-26T05:58:07.939Z,93.40
2019-02-26T06:00:37.610Z,93.50
2019-02-26T06:03:09.530Z,93.50
2019-02-26T06:05:41.160Z,93.40
2019-02-26T06:08:08.612Z,93.70
2019-02-26T06:10:37.497Z,93.60
2019-02-26T06:13:07.617Z,93.60
2019-02-26T06:15:36.570Z,93.60
2019-02-26T06:18:05.489Z,93.60
2019-02-26T06:20:36.601Z,93.60
2019-02-26T06:23:04.756Z,93.60
2019-02-26T06:25:33.494Z,93.90
2019-02-26T06:28:04.878Z,94.10
2019-02-26T06:30:33.175Z,94.40
2019-02-26T06:33:04.138Z,94.60
2019-02-26T06:35:33.692Z,94.60
2019-02-26T06:38:04.518Z,94.70
2019-02-26T06:40:36.727Z,94.70
2019-02-26T06:43:04.606Z,94.90
2019-02-26T06:45:35.566Z,95.10
2019-02-26T06:48:05.529Z,95.40
2019-02-26T06:50:36.302Z,95.90
2019-02-26T06:53:08.532Z,96.20
2019-02-26T06:55:36.748Z,95.40
2019-02-26T06:58:08.352Z,93.20
2019-02-26T07:00:37.262Z,81.40
2019-02-26T07:03:05.958Z,64.30
2019-02-26T07:05:34.831Z,50.20
2019-02-26T07:08:04.810Z,47.50
2019-02-26T07:10:34.197Z,46.40
2019-02-26T07:13:05.068Z,36.80
2019-02-26T07:15:33.955Z,31.90
2019-02-26T07:18:06.778Z,30.90
2019-02-26T07:20:39.388Z,29.10
2019-02-26T07:23:05.777Z,26.60
2019-02-26T07:25:37.042Z,24.50
2019-02-26T07:28:06.271Z,22.00
2019-02-26T07:30:37.569Z,21.00
2019-02-26T07:33:08.037Z,21.00
2019-02-26T07:35:37.389Z,21.70
2019-02-26T07:38:08.149Z,21.00
2019-02-26T07:40:38.614Z,21.00
2019-02-26T07:43:09.830Z,22.40
2019-02-26T07:45:39.307Z,20.20
2019-02-26T07:48:08.064Z,18.40
2019-02-26T07:50:39.652Z,17.40
2019-02-26T07:53:07.351Z,15.70
2019-02-26T07:55:38.195Z,17.60
2019-02-26T07:58:09.198Z,17.90
2019-02-26T08:00:40.332Z,16.80
2019-02-26T08:03:08.355Z,14.60
2019-02-26T08:05:37.044Z,14.10
2019-02-26T08:08:06.141Z,12.30
2019-02-26T08:10:40.111Z,11.00
2019-02-26T08:13:08.062Z,10.10
2019-02-26T08:15:37.510Z,11.30
2019-02-26T08:18:06.924Z,11.00
2019-02-26T08:20:37.511Z,11.20
2019-02-26T08:23:06.263Z,10.80
2019-02-26T08:25:35.119Z,9.60
2019-02-26T08:28:03.945Z,9.50
2019-02-26T08:30:32.908Z,8.70
2019-02-26T08:33:06.754Z,8.70
2019-02-26T08:35:34.290Z,8.10
2019-02-26T08:38:05.668Z,8.00
2019-02-26T08:40:34.154Z,7.60
2019-02-26T08:43:02.996Z,8.20
2019-02-26T08:45:32.478Z,8.40
2019-02-26T08:48:01.351Z,7.40
2019-02-26T08:50:32.970Z,5.50
2019-02-26T08:53:00.778Z,5.10
2019-02-26T08:55:31.067Z,4.50
2019-02-26T08:58:01.895Z,4.20
2019-02-26T09:00:30.707Z,4.50
2019-02-26T09:03:01.138Z,2.90
2019-02-26T09:05:34.252Z,1.60
2019-02-26T09:08:03.513Z,1.00
2019-02-26T09:10:32.352Z,1.00
2019-02-26T09:13:01.066Z,1.70
2019-02-26T09:15:31.359Z,1.00
2019-02-26T09:18:00.424Z,1.00
2019-02-26T09:20:30.731Z,1.00
2019-02-26T09:23:01.412Z,1.00
2019-02-26T09:25:33.918Z,1.00
2019-02-26T09:28:02.256Z,1.00
2019-02-26T09:30:35.831Z,1.00
2019-02-26T09:33:06.422Z,1.00
2019-02-26T09:35:36.551Z,1.00
2019-02-26T09:38:06.356Z,1.00
2019-02-26T09:40:35.883Z,1.00
2019-02-26T09:43:06.274Z,1.00
2019-02-26T09:45:35.444Z,1.00
2019-02-26T09:48:04.493Z,1.00
2019-02-26T09:50:33.196Z,1.00
2019-02-26T09:53:03.673Z,1.00
2019-02-26T09:55:32.536Z,1.00
2019-02-26T09:58:02.537Z,1.00
2019-02-26T10:00:31.548Z,1.00
2019-02-26T10:03:02.531Z,1.00
2019-02-26T10:05:32.067Z,1.00
2019-02-26T10:08:04.822Z,1.00
2019-02-26T10:10:33.687Z,1.00
2019-02-26T10:13:04.606Z,1.00
2019-02-26T10:15:34.641Z,1.00
2019-02-26T10:18:06.578Z,1.00
2019-02-26T10:20:35.661Z,1.00
2019-02-26T10:23:06.363Z,1.00
2019-02-26T10:25:38.640Z,1.00
2019-02-26T10:28:11.018Z,1.00
2019-02-26T10:30:40.961Z,1.00
2019-02-26T10:33:10.108Z,1.00
2019-02-26T10:35:44.381Z,1.00
2019-02-26T10:38:12.591Z,1.00
2019-02-26T10:40:53.525Z,1.00
2019-02-26T10:43:12.931Z,1.00
2019-02-26T10:45:44.813Z,1.00
2019-02-26T10:48:16.206Z,1.00
2019-02-26T10:50:46.979Z,1.00
2019-02-26T10:53:18.875Z,1.00
2019-02-26T10:55:48.911Z,1.00
2019-02-26T10:58:17.679Z,1.00
2019-02-26T11:00:50.642Z,1.00
2019-02-26T11:03:20.259Z,1.00
2019-02-26T11:05:52.009Z,1.00
2019-02-26T11:08:20.790Z,1.00
2019-02-26T11:10:52.191Z,1.00
2019-02-26T11:13:23.068Z,1.00
2019-02-26T11:15:53.984Z,1.00
2019-02-26T11:18:23.495Z,1.00
2019-02-26T11:20:56.150Z,1.00
2019-02-26T11:23:30.872Z,1.00
2019-02-26T11:25:58.001Z,1.00
2019-02-26T11:28:32.737Z,1.00
2019-02-26T11:31:01.996Z,1.00
2019-02-26T11:33:31.428Z,1.00
2019-02-26T11:36:03.088Z,1.00
2019-02-26T11:38:39.024Z,1.00
2019-02-26T11:41:15.859Z,1.00
2019-02-26T11:43:47.640Z,1.00
2019-02-26T11:46:16.672Z,1.00
2019-02-26T11:48:47.583Z,1.00
2019-02-26T11:51:41.824Z,1.00
2019-02-26T11:54:14.864Z,1.00
2019-02-26T11:59:45.653Z,1.00
2019-02-26T12:02:25.307Z,1.00
2019-02-26T12:04:50.715Z,1.00
2019-02-26T12:07:19.957Z,1.00
2019-02-26T12:09:58.426Z,1.00
2019-02-26T12:12:28.880Z,1.00
2019-02-26T12:15:01.084Z,1.00
2019-02-26T12:17:29.956Z,1.00
2019-02-26T12:20:00.531Z,1.00
2019-02-26T12:22:31.444Z,1.00
2019-02-26T12:25:02.717Z,1.00
2019-02-26T12:27:32.470Z,1.00
2019-02-26T12:30:01.349Z,1.00
2019-02-26T12:32:33.259Z,1.00
2019-02-26T12:35:03.910Z,1.00
2019-02-26T12:37:33.868Z,1.00
2019-02-26T12:40:02.900Z,1.00
2019-02-26T12:42:33.519Z,1.00
2019-02-26T12:45:13.992Z,1.00
2019-02-26T12:47:43.004Z,1.00
2019-02-26T12:50:19.665Z,1.00
2019-02-26T12:52:51.572Z,1.00
2019-02-26T12:55:22.327Z,1.00
2019-02-26T12:57:52.797Z,1.00
2019-02-26T13:00:24.614Z,1.00
2019-02-26T13:02:55.937Z,1.00
2019-02-26T13:05:26.718Z,1.00
2019-02-26T13:08:01.276Z,1.00
2019-02-26T13:10:33.790Z,1.00
2019-02-26T13:16:13.131Z,1.00
2019-02-26T13:18:47.821Z,1.00
2019-02-26T13:21:17.152Z,1.00
2019-02-26T13:23:49.016Z,1.00
2019-02-26T13:26:21.845Z,1.00
2019-02-26T13:28:53.020Z,1.00
2019-02-26T13:31:22.487Z,1.00
2019-02-26T13:34:03.987Z,1.00
2019-02-26T13:39:38.453Z,1.00
2019-02-26T13:42:03.714Z,1.00
2019-02-26T13:44:30.898Z,1.00
2019-02-26T13:47:04.108Z,1.00
2019-02-26T13:49:34.729Z,1.00
2019-02-26T13:52:30.168Z,1.00
2019-02-26T13:55:04.284Z,1.00
2019-02-26T13:58:11.924Z,1.00
2019-02-26T14:00:14.267Z,1.00
2019-02-26T14:05:38.160Z,1.00
2019-02-26T14:08:07.324Z,1.00
2019-02-26T14:10:46.321Z,1.00
2019-02-26T14:13:21.039Z,1.00
2019-02-26T14:15:51.228Z,1.00
2019-02-26T14:18:19.947Z,1.00
2019-02-26T14:20:48.687Z,1.00
2019-02-26T14:23:17.441Z,1.00
2019-02-26T14:26:43.183Z,1.00
2019-02-26T14:28:32.262Z,1.00
2019-02-26T14:31:01.440Z,1.00
2019-02-26T14:33:32.138Z,1.00
2019-02-26T14:36:01.217Z,1.00
2019-02-26T14:38:30.378Z,1.00
2019-02-26T14:41:00.107Z,1.00
2019-02-26T14:43:30.569Z,1.00
2019-02-26T14:46:01.401Z,1.00
2019-02-26T14:48:30.301Z,1.00
2019-02-26T14:50:59.039Z,1.00
2019-02-26T14:53:29.421Z,1.00
2019-02-26T14:56:04.209Z,1.00
2019-02-26T14:58:34.421Z,1.00
2019-02-26T15:01:04.794Z,1.00
2019-02-26T15:03:36.223Z,1.00
2019-02-26T15:06:05.167Z,1.00
2019-02-26T15:08:36.627Z,1.00
2019-02-26T15:11:11.310Z,1.00
2019-02-26T15:13:37.366Z,1.00
2019-02-26T15:16:06.144Z,1.00
2019-02-26T15:18:36.343Z,1.00
2019-02-26T15:21:05.165Z,1.00
2019-02-26T15:23:33.954Z,1.00
2019-02-26T15:26:02.805Z,1.00
2019-02-26T15:28:34.395Z,1.00
2019-02-26T15:31:03.635Z,1.00
2019-02-26T15:33:32.484Z,1.00
2019-02-26T15:36:02.059Z,1.00
2019-02-26T15:38:30.904Z,1.00
2019-02-26T15:41:00.722Z,1.00
2019-02-26T15:43:30.176Z,1.00
2019-02-26T15:45:59.760Z,1.00
2019-02-26T15:48:29.009Z,1.00
2019-02-26T15:50:57.699Z,1.00
2019-02-26T15:53:27.619Z,1.00
2019-02-26T15:55:59.188Z,1.00
2019-02-26T15:58:26.981Z,1.00
2019-02-26T16:00:55.986Z,1.00
2019-02-26T16:03:24.917Z,1.00
2019-02-26T16:05:54.062Z,1.00
2019-02-26T16:08:23.016Z,1.00
2019-02-26T16:10:51.840Z,1.00
2019-02-26T16:13:23.331Z,1.00
2019-02-26T16:15:52.968Z,1.00
2019-02-26T16:18:22.565Z,1.00
2019-02-26T16:20:51.349Z,1.00
2019-02-26T16:23:20.271Z,1.00
2019-02-26T16:25:49.143Z,1.00
2019-02-26T16:28:19.591Z,1.00
2019-02-26T16:30:48.615Z,1.00
2019-02-26T16:33:18.055Z,1.00
2019-02-26T16:35:47.556Z,1.00
2019-02-26T16:38:16.458Z,1.00
2019-02-26T16:40:46.615Z,1.00
2019-02-26T16:43:17.953Z,1.00
2019-02-26T16:45:46.896Z,1.00
2019-02-26T16:48:15.792Z,1.00
2019-02-26T16:50:46.456Z,1.00
2019-02-26T16:53:15.596Z,1.00
2019-02-26T16:55:48.755Z,1.00
2019-02-26T16:58:16.512Z,1.00
2019-02-26T17:00:46.544Z,1.00
2019-02-26T17:03:17.327Z,1.00
2019-02-26T17:05:50.331Z,1.00
2019-02-26T17:08:20.641Z,1.00
2019-02-26T17:10:49.530Z,1.00
2019-02-26T17:13:22.018Z,1.00
2019-02-26T17:15:51.134Z,1.00
2019-02-26T17:18:20.017Z,1.00
2019-02-26T17:20:49.775Z,1.00
2019-02-26T17:23:18.759Z,1.00
2019-02-26T17:25:47.596Z,1.00
2019-02-26T17:28:22.146Z,1.00
2019-02-26T17:30:57.764Z,1.00
2019-02-26T17:36:17.130Z,1.00
2019-02-26T17:38:45.986Z,1.00
2019-02-26T17:41:15.513Z,1.10
2019-02-26T17:43:44.511Z,1.70
2019-02-26T17:46:13.372Z,2.00
2019-02-26T17:48:43.703Z,2.30
2019-02-26T17:51:12.633Z,3.00
2019-02-26T17:53:41.577Z,3.50
2019-02-26T17:56:11.650Z,3.60
2019-02-26T17:58:41.726Z,3.70
2019-02-26T18:01:11.953Z,4.00
2019-02-26T18:03:44.595Z,4.30
2019-02-26T18:06:13.180Z,4.50
2019-02-26T18:08:43.581Z,5.10
2019-02-26T18:11:12.423Z,6.20
2019-02-26T18:13:41.243Z,6.20
2019-02-26T18:16:10.115Z,7.10
2019-02-26T18:18:38.950Z,8.10
2019-02-26T18:21:07.802Z,9.10
2019-02-26T18:23:40.734Z,10.20
2019-02-26T18:26:10.318Z,10.80
2019-02-26T18:28:39.112Z,11.90
2019-02-26T18:31:08.184Z,12.90
2019-02-26T18:33:37.477Z,13.90
2019-02-26T18:36:06.476Z,13.40
2019-02-26T18:38:40.337Z,12.50
2019-02-26T18:41:10.399Z,12.10
2019-02-26T18:43:39.717Z,12.20
2019-02-26T18:46:08.580Z,12.50
2019-02-26T18:48:39.052Z,13.20
2019-02-26T18:51:08.041Z,13.40
2019-02-26T18:53:37.456Z,13.70
2019-02-26T18:56:06.277Z,14.10
2019-02-26T18:58:35.167Z,14.10
2019-02-26T19:01:04.056Z,14.00
2019-02-26T19:03:32.833Z,12.70
2019-02-26T19:06:03.650Z,13.30
2019-02-26T19:08:34.522Z,13.40
2019-02-26T19:11:04.508Z,13.90
2019-02-26T19:13:35.662Z,14.30
2019-02-26T19:16:07.067Z,14.90
2019-02-26T19:18:38.789Z,15.70
2019-02-26T19:21:09.266Z,15.80
2019-02-26T19:23:39.569Z,16.60
2019-02-26T19:26:08.358Z,16.70
2019-02-26T19:28:37.238Z,17.20
2019-02-26T19:31:09.584Z,17.90
2019-02-26T19:33:37.938Z,17.80
2019-02-26T19:36:12.970Z,17.80
2019-02-26T19:38:47.144Z,18.50
2019-02-26T19:41:15.144Z,18.70
2019-02-26T19:43:44.438Z,18.00
2019-02-26T19:46:18.836Z,18.10
2019-02-26T19:48:47.684Z,17.80
2019-02-26T19:51:21.892Z,17.40
2019-02-26T19:53:48.598Z,17.80
2019-02-26T19:56:17.435Z,17.80
2019-02-26T19:58:47.689Z,17.70
2019-02-26T20:01:16.497Z,17.80
2019-02-26T20:03:46.509Z,17.70
2019-02-26T20:06:18.601Z,17.60
2019-02-26T20:08:47.490Z,18.50
2019-02-26T20:11:17.804Z,19.30
2019-02-26T20:13:46.624Z,19.20
2019-02-26T20:16:15.490Z,20.00
2019-02-26T20:18:45.607Z,21.10
2019-02-26T20:21:16.889Z,22.00
2019-02-26T20:23:45.289Z,22.60
2019-02-26T20:26:16.493Z,23.60
2019-02-26T20:28:46.289Z,23.70
2019-02-26T20:31:16.956Z,23.40
2019-02-26T20:33:46.203Z,23.50
2019-02-26T20:36:19.744Z,23.70
2019-02-26T20:38:49.038Z,24.20
2019-02-26T20:41:22.220Z,25.10
2019-02-26T20:43:52.902Z,25.60
2019-02-26T20:46:24.952Z,26.40
2019-02-26T20:48:52.327Z,26.30
2019-02-26T20:51:21.190Z,26.30
2019-02-26T20:53:50.665Z,25.60
2019-02-26T20:56:19.530Z,25.80
2019-02-26T20:58:49.760Z,26.00
2019-02-26T21:01:18.499Z,26.30
2019-02-26T21:03:47.405Z,26.90
2019-02-26T21:06:17.991Z,27.30
2019-02-26T21:08:47.374Z,27.80
2019-02-26T21:11:22.353Z,27.90
2019-02-26T21:13:48.529Z,28.40
2019-02-26T21:16:18.601Z,28.70
2019-02-26T21:18:49.471Z,28.50
2019-02-26T21:21:18.356Z,28.80
2019-02-26T21:23:47.412Z,29.00
2019-02-26T21:26:19.291Z,28.70
2019-02-26T21:28:47.179Z,29.00
2019-02-26T21:31:18.879Z,29.80
2019-02-26T21:33:53.662Z,31.60
2019-02-26T21:36:22.820Z,33.70
2019-02-26T21:38:52.492Z,35.30
2019-02-26T21:41:23.478Z,36.90
2019-02-26T21:43:56.199Z,37.90
2019-02-26T21:46:25.309Z,39.00
2019-02-26T21:48:54.110Z,40.60
2019-02-26T21:51:23.026Z,40.30
2019-02-26T21:53:51.882Z,41.30
2019-02-26T21:56:22.125Z,40.70
2019-02-26T21:58:50.967Z,41.30
2019-02-26T22:01:19.772Z,41.50
2019-02-26T22:03:50.977Z,40.30
2019-02-26T22:06:19.770Z,39.80
2019-02-26T22:08:50.323Z,40.50
2019-02-26T22:11:19.209Z,41.60
2019-02-26T22:13:48.178Z,42.10
2019-02-26T22:16:17.715Z,42.80
2019-02-26T22:18:47.517Z,43.10
2019-02-26T22:21:18.727Z,44.30
2019-02-26T22:23:47.312Z,46.60
2019-02-26T22:26:17.471Z,47.10
2019-02-26T22:28:46.966Z,48.90
2019-02-26T22:31:16.916Z,49.80
2019-02-26T22:33:46.528Z,50.80
2019-02-26T22:36:16.372Z,52.00
2019-02-26T22:38:49.053Z,52.00
2019-02-26T22:41:19.677Z,52.00
2019-02-26T22:43:48.550Z,52.90
2019-02-26T22:46:17.424Z,55.50
2019-02-26T22:48:47.838Z,57.00
2019-02-26T22:51:18.505Z,57.20
2019-02-26T22:53:47.399Z,56.80
2019-02-26T22:56:16.896Z,56.40
2019-02-26T22:58:45.751Z,58.00
2019-02-26T23:01:18.564Z,56.90
2019-02-26T23:03:48.423Z,56.90
2019-02-26T23:06:17.935Z,56.60
2019-02-26T23:08:46.725Z,56.00
2019-02-26T23:11:16.287Z,55.80
2019-02-26T23:13:48.019Z,56.20
2019-02-26T23:16:18.531Z,56.20
2019-02-26T23:18:48.848Z,55.60
2019-02-26T23:21:18.548Z,53.30
2019-02-26T23:23:48.791Z,52.50
2019-02-26T23:26:18.143Z,52.40
2019-02-26T23:28:47.278Z,52.00
2019-02-26T23:31:17.701Z,52.30
2019-02-26T23:33:48.551Z,52.30
2019-02-26T23:36:17.834Z,52.10
2019-02-26T23:38:47.304Z,52.10
2019-02-26T23:41:16.676Z,52.90
2019-02-26T23:43:46.917Z,52.40
2019-02-26T23:46:15.706Z,52.80
2019-02-26T23:48:44.462Z,52.00
2019-02-26T23:51:13.296Z,52.50
2019-02-26T23:53:42.222Z,52.80
2019-02-26T23:56:11.628Z,52.40
2019-02-26T23:58:40.540Z,52.30
